HBBA/BJM METAR and TAF weather

Enter ICAO airport designator
Station Type Date Time Source
HBBA METAR 2020/06/04 12:00 UTC NOAA

HBBA 041200Z 18024KT 9999 FEW025TCU FEW030CB 30/19 Q1014 NOSIG


Station Type Date Time Source
HBBA Decoded METAR 2020/06/04 12:00 UTC NOAA

Bujumbura, Burundi (HBBA) 03-19S 029-19E 783M
Jun 04, 2020 - 08:00 AM EDT / 2020.06.04 1200 UTC
Wind: from the S (180 degrees) at 28 MPH (24 KT):0
Visibility: greater than 7 mile(s):0
Sky conditions: mostly clear
Weather: Cumulonimbus clouds, towering cumulus clouds observed
Temperature: 86 F (30 C)
Dew Point: 66 F (19 C)
Relative Humidity: 51%
Pressure (altimeter): 29.94 in. Hg (1014 hPa)
ob: HBBA 041200Z 18024KT 9999 FEW025TCU FEW030CB 30/19 Q1014 NOSIG
cycle: 12

Station Type Date Time Source
HBBA TAF 2020/06/05 06:53 UTC NOAA

TAF HBBA 050500Z 0506/0612 36005KT 9999 FEW030 SCT100
BECMG0507/0509 18012G25KT
BECMG0520/0522 00000KT CAVOK
BECMG0603/0605 36003KT
BECMG0608/0610 18010G20KT

Example: see airport list